Time;durP1;ratioP1;P1;durP2;ratioP2;P2;SDS_P1;SDS_P2;PMS_P1;PMS_P2;Temp;Humidity;BMP_temperature;BMP_pressure;BME280_temperature;BME280_humidity;BME280_pressure;Samples;Min_cycle;Max_cycle;Signal;HPM_P1;HPM_P2
2022/03/18 00:02:13;;;;;;;;;;;6.00;99.90;;;;;;5053889;28;19913;-82
2022/03/18 00:04:38;;;;;;;;;;;5.90;99.90;;;;;;5050786;28;19944;-82
2022/03/18 00:07:04;;;;;;;;;;;5.90;99.90;;;;;;5048804;28;19963;-82
2022/03/18 00:09:30;;;;;;;;;;;5.90;99.90;;;;;;5053378;28;19913;-82
2022/03/18 00:11:55;;;;;;;;;;;5.90;99.90;;;;;;5048143;28;19917;-82
2022/03/18 00:14:21;;;;;;;;;;;5.80;99.90;;;;;;5047987;28;19920;-82
2022/03/18 00:16:47;;;;;;;;;;;5.80;99.90;;;;;;5049996;28;19921;-82
2022/03/18 00:19:12;;;;;;;;;;;5.70;99.90;;;;;;5034970;28;19948;-82
2022/03/18 00:21:38;;;;;;;;;;;5.70;99.90;;;;;;5030319;28;20311;-82
2022/03/18 00:24:03;;;;;;;;;;;5.70;99.90;;;;;;5022280;28;19917;-82
2022/03/18 00:26:32;;;;;;;;;;;5.60;99.90;;;;;;5027646;28;19921;-82
2022/03/18 00:28:58;;;;;;;;;;;5.60;99.90;;;;;;5052478;28;19913;-82
2022/03/18 00:31:24;;;;;;;;;;;5.50;99.90;;;;;;5030308;28;19917;-82
2022/03/18 00:33:49;;;;;;;;;;;5.50;99.90;;;;;;5070220;28;20014;-82
2022/03/18 00:36:15;;;;;;;;;;;5.40;99.90;;;;;;5053828;28;19920;-82
2022/03/18 00:38:41;;;;;;;;;;;5.40;99.90;;;;;;5047354;28;19967;-82
2022/03/18 00:41:07;;;;;;;;;;;5.40;99.90;;;;;;5022792;28;19921;-82
2022/03/18 00:43:32;;;;;;;;;;;5.30;99.90;;;;;;5055071;28;19935;-82
2022/03/18 00:45:58;;;;;;;;;;;5.30;99.90;;;;;;5038097;28;19917;-82
2022/03/18 00:53:52;;;;;;;;;;;5.30;99.90;;;;;;5040822;28;20447;-82
2022/03/18 00:56:18;;;;;;;;;;;5.20;99.90;;;;;;5037154;28;19944;-82
2022/03/18 00:58:43;;;;;;;;;;;5.30;99.90;;;;;;5039885;28;19917;-82
2022/03/18 01:01:09;;;;;;;;;;;5.30;99.90;;;;;;5027305;28;20443;-82
2022/03/18 01:03:34;;;;;;;;;;;5.30;99.90;;;;;;5034872;28;20389;-82
2022/03/18 01:06:00;;;;;;;;;;;5.30;99.90;;;;;;5021952;28;19922;-82
2022/03/18 01:08:25;;;;;;;;;;;5.30;99.90;;;;;;5047531;28;20310;-82
2022/03/18 01:10:52;;;;;;;;;;;5.20;99.90;;;;;;5029820;28;19917;-82
2022/03/18 01:13:17;;;;;;;;;;;5.20;99.90;;;;;;5041570;28;19940;-82
2022/03/18 01:15:43;;;;;;;;;;;5.20;99.90;;;;;;5044986;28;20367;-82
2022/03/18 01:18:08;;;;;;;;;;;5.20;99.90;;;;;;5034099;28;20458;-82
2022/03/18 01:20:34;;;;;;;;;;;5.20;99.90;;;;;;5021695;28;19921;-82
2022/03/18 01:23:00;;;;;;;;;;;5.20;99.90;;;;;;5031948;28;20035;-82
2022/03/18 01:25:26;;;;;;;;;;;5.20;99.90;;;;;;5055232;28;19925;-82
2022/03/18 01:27:52;;;;;;;;;;;5.20;99.90;;;;;;5061641;28;20276;-82
2022/03/18 01:30:17;;;;;;;;;;;5.20;99.90;;;;;;5039054;28;19909;-82
2022/03/18 01:32:43;;;;;;;;;;;5.20;99.90;;;;;;5033588;28;19921;-82
2022/03/18 01:35:08;;;;;;;;;;;5.20;99.90;;;;;;5020046;28;19920;-82
2022/03/18 01:37:34;;;;;;;;;;;5.20;99.90;;;;;;5053733;28;20353;-82
2022/03/18 01:40:00;;;;;;;;;;;5.10;99.90;;;;;;5025146;28;19929;-82
2022/03/18 01:42:26;;;;;;;;;;;5.20;99.90;;;;;;5035114;28;20012;-82
2022/03/18 01:44:51;;;;;;;;;;;5.20;99.90;;;;;;5048273;28;19919;-82
2022/03/18 01:47:17;;;;;;;;;;;5.20;99.90;;;;;;5033779;28;20353;-82
2022/03/18 01:49:42;;;;;;;;;;;5.30;99.90;;;;;;5043626;28;19917;-82
2022/03/18 01:52:08;;;;;;;;;;;5.30;99.90;;;;;;5017705;28;19917;-82
2022/03/18 01:54:44;;;;;;;;;;;5.30;99.90;;;;;;5048234;28;20403;-82
2022/03/18 01:57:09;;;;;;;;;;;5.30;99.90;;;;;;5036675;28;19919;-82
2022/03/18 01:59:35;;;;;;;;;;;5.30;99.90;;;;;;5039899;28;19912;-82
2022/03/18 02:02:00;;;;;;;;;;;5.30;99.90;;;;;;5038124;28;20023;-82
2022/03/18 02:04:26;;;;;;;;;;;5.30;99.90;;;;;;5047785;28;19970;-82
2022/03/18 02:06:52;;;;;;;;;;;5.30;99.90;;;;;;5030278;28;19925;-82
2022/03/18 02:09:17;;;;;;;;;;;5.30;99.90;;;;;;5025451;28;19923;-82
2022/03/18 02:11:43;;;;;;;;;;;5.30;99.90;;;;;;5022488;28;19924;-82
2022/03/18 02:14:09;;;;;;;;;;;5.30;99.90;;;;;;5038282;28;20011;-82
2022/03/18 02:16:34;;;;;;;;;;;5.30;99.90;;;;;;5029279;28;19928;-82
2022/03/18 02:19:00;;;;;;;;;;;5.40;99.90;;;;;;5040310;28;19917;-82
2022/03/18 02:21:28;;;;;;;;;;;5.40;99.90;;;;;;5022298;28;19916;-82
2022/03/18 02:23:53;;;;;;;;;;;5.30;99.90;;;;;;5038321;28;19920;-82
2022/03/18 02:26:19;;;;;;;;;;;5.30;99.90;;;;;;5047795;28;19917;-82
2022/03/18 02:28:44;;;;;;;;;;;5.30;99.90;;;;;;5038478;28;19920;-82
2022/03/18 02:31:10;;;;;;;;;;;5.20;99.90;;;;;;5029589;28;20363;-82
2022/03/18 02:33:36;;;;;;;;;;;5.30;99.90;;;;;;5041632;28;19917;-82
2022/03/18 02:36:01;;;;;;;;;;;5.30;99.90;;;;;;5050019;28;19921;-82
2022/03/18 02:38:27;;;;;;;;;;;5.30;99.90;;;;;;5020312;28;19921;-82
2022/03/18 02:40:52;;;;;;;;;;;5.30;99.90;;;;;;5051832;28;19913;-83
2022/03/18 02:43:18;;;;;;;;;;;5.30;99.90;;;;;;5020326;28;19971;-82
2022/03/18 02:45:43;;;;;;;;;;;5.30;99.90;;;;;;5041706;28;19917;-82
2022/03/18 02:48:09;;;;;;;;;;;5.30;99.90;;;;;;5032909;28;19932;-82
2022/03/18 02:50:35;;;;;;;;;;;5.30;99.90;;;;;;5040762;28;19916;-82
2022/03/18 02:53:01;;;;;;;;;;;5.40;99.90;;;;;;5022021;28;19916;-82
2022/03/18 02:55:27;;;;;;;;;;;5.40;99.90;;;;;;5053126;28;19932;-82
2022/03/18 02:57:52;;;;;;;;;;;5.40;99.90;;;;;;5034660;28;19956;-82
2022/03/18 03:00:18;;;;;;;;;;;5.40;99.90;;;;;;5047858;28;20264;-82
2022/03/18 03:02:43;;;;;;;;;;;5.40;99.90;;;;;;5051310;28;19913;-82
2022/03/18 03:07:59;;;;;;;;;;;5.50;99.90;;;;;;5051349;28;20239;-82
2022/03/18 03:10:32;;;;;;;;;;;5.50;99.90;;;;;;5040926;28;20003;-82
2022/03/18 03:12:59;;;;;;;;;;;5.50;99.90;;;;;;5024222;28;19917;-82
2022/03/18 03:15:25;;;;;;;;;;;5.50;99.90;;;;;;5051284;28;19995;-82
2022/03/18 03:17:51;;;;;;;;;;;5.50;99.90;;;;;;5049385;28;19917;-82
2022/03/18 03:20:16;;;;;;;;;;;5.50;99.90;;;;;;5018787;28;19928;-82
2022/03/18 03:22:42;;;;;;;;;;;5.50;99.90;;;;;;5045159;28;19913;-82
2022/03/18 03:25:10;;;;;;;;;;;5.50;99.90;;;;;;5029922;28;19948;-82
2022/03/18 03:27:36;;;;;;;;;;;5.50;99.90;;;;;;5047810;28;19912;-82
2022/03/18 03:30:06;;;;;;;;;;;5.50;99.90;;;;;;5041886;28;20038;-82
2022/03/18 03:32:32;;;;;;;;;;;5.50;99.90;;;;;;5030243;28;20303;-82
2022/03/18 03:34:58;;;;;;;;;;;5.50;99.90;;;;;;5040462;28;19923;-82
2022/03/18 03:37:24;;;;;;;;;;;5.40;99.90;;;;;;5051179;28;19924;-83
2022/03/18 03:39:50;;;;;;;;;;;5.40;99.90;;;;;;5048199;28;19917;-82
2022/03/18 03:42:16;;;;;;;;;;;5.40;99.90;;;;;;5042796;28;20035;-83
2022/03/18 03:44:42;;;;;;;;;;;5.40;99.90;;;;;;5035201;28;20447;-83
2022/03/18 03:47:07;;;;;;;;;;;5.40;99.90;;;;;;5042010;28;19925;-82
2022/03/18 03:49:33;;;;;;;;;;;5.40;99.90;;;;;;5030479;28;19959;-82
2022/03/18 03:51:58;;;;;;;;;;;5.50;99.90;;;;;;5053156;28;19939;-83
2022/03/18 03:54:24;;;;;;;;;;;5.40;99.90;;;;;;5050683;28;19976;-82
2022/03/18 03:56:49;;;;;;;;;;;5.40;99.90;;;;;;5024857;28;19925;-82
2022/03/18 03:59:15;;;;;;;;;;;5.40;99.90;;;;;;5024411;28;19924;-82
2022/03/18 04:01:40;;;;;;;;;;;5.40;99.90;;;;;;5030703;28;19921;-82
2022/03/18 04:04:06;;;;;;;;;;;5.40;99.90;;;;;;5030249;28;19920;-82
2022/03/18 04:06:32;;;;;;;;;;;5.40;99.90;;;;;;5047601;28;19975;-82
2022/03/18 04:08:58;;;;;;;;;;;5.40;99.90;;;;;;5027380;28;20019;-84
2022/03/18 04:11:23;;;;;;;;;;;5.30;99.90;;;;;;5044655;28;19964;-82
2022/03/18 04:13:49;;;;;;;;;;;5.30;99.90;;;;;;5046858;28;19913;-82
2022/03/18 04:16:15;;;;;;;;;;;5.30;99.90;;;;;;5034765;28;19998;-82
2022/03/18 04:18:44;;;;;;;;;;;5.30;99.90;;;;;;5024413;28;20388;-82
2022/03/18 04:21:09;;;;;;;;;;;5.30;99.90;;;;;;5028073;28;19917;-83
2022/03/18 04:23:35;;;;;;;;;;;5.30;99.90;;;;;;5035193;28;20370;-83
2022/03/18 04:26:00;;;;;;;;;;;5.20;99.90;;;;;;5026216;28;19921;-82
2022/03/18 04:28:26;;;;;;;;;;;5.20;99.90;;;;;;5041966;28;19947;-82
2022/03/18 04:30:51;;;;;;;;;;;5.20;99.90;;;;;;5030297;28;19944;-84
2022/03/18 04:33:17;;;;;;;;;;;5.10;99.90;;;;;;5047466;28;20337;-82
2022/03/18 04:35:42;;;;;;;;;;;5.10;99.90;;;;;;5026561;28;20405;-81
2022/03/18 04:38:08;;;;;;;;;;;5.10;99.90;;;;;;5018872;28;19918;-83
2022/03/18 04:40:33;;;;;;;;;;;5.00;99.90;;;;;;5035025;28;19924;-82
2022/03/18 04:42:59;;;;;;;;;;;5.00;99.90;;;;;;5023759;28;19969;-83
2022/03/18 04:48:04;;;;;;;;;;;5.00;99.90;;;;;;5053227;28;19925;-83
2022/03/18 04:50:30;;;;;;;;;;;5.00;99.90;;;;;;5038473;28;19939;-82
2022/03/18 04:52:56;;;;;;;;;;;4.90;99.90;;;;;;5053811;28;20383;-83
2022/03/18 04:55:21;;;;;;;;;;;4.90;99.90;;;;;;5054283;28;20366;-84
2022/03/18 04:57:47;;;;;;;;;;;4.80;99.90;;;;;;5053646;28;19917;-83
2022/03/18 05:00:13;;;;;;;;;;;4.90;99.90;;;;;;5054335;28;19913;-83
2022/03/18 05:02:38;;;;;;;;;;;4.80;99.90;;;;;;5054728;28;20007;-82
2022/03/18 05:05:04;;;;;;;;;;;4.80;99.90;;;;;;5053962;28;19984;-83
2022/03/18 05:07:30;;;;;;;;;;;4.80;99.90;;;;;;5040961;28;20367;-83
2022/03/18 05:09:56;;;;;;;;;;;4.80;99.90;;;;;;5058442;28;19921;-84
2022/03/18 05:12:22;;;;;;;;;;;4.70;99.90;;;;;;5041327;28;19928;-84
2022/03/18 05:14:49;;;;;;;;;;;4.70;99.90;;;;;;5042107;28;20219;-84
2022/03/18 05:17:14;;;;;;;;;;;4.70;99.90;;;;;;5043154;28;20433;-84
2022/03/18 05:19:40;;;;;;;;;;;4.70;99.90;;;;;;5044057;28;19920;-84
2022/03/18 05:22:06;;;;;;;;;;;4.70;99.90;;;;;;5041499;28;19925;-83
2022/03/18 05:24:32;;;;;;;;;;;4.70;99.90;;;;;;5059824;28;20548;-83
2022/03/18 05:26:58;;;;;;;;;;;4.80;99.90;;;;;;5059820;28;19917;-83
2022/03/18 05:29:25;;;;;;;;;;;4.80;99.90;;;;;;5050143;28;19913;-85
2022/03/18 05:31:51;;;;;;;;;;;4.70;99.90;;;;;;5050888;28;19913;-83
2022/03/18 05:34:17;;;;;;;;;;;4.70;99.90;;;;;;5049800;28;19920;-84
2022/03/18 05:36:43;;;;;;;;;;;4.70;99.90;;;;;;5033260;28;19962;-83
2022/03/18 05:39:09;;;;;;;;;;;4.70;99.90;;;;;;5049575;28;19960;-83
2022/03/18 05:41:35;;;;;;;;;;;4.60;99.90;;;;;;5049807;28;19967;-83
2022/03/18 05:44:00;;;;;;;;;;;4.60;99.90;;;;;;5049939;28;20495;-83
2022/03/18 05:46:26;;;;;;;;;;;4.60;99.90;;;;;;5049496;28;20291;-83
2022/03/18 05:48:52;;;;;;;;;;;4.60;99.90;;;;;;5050150;28;19920;-83
2022/03/18 05:51:17;;;;;;;;;;;4.60;99.90;;;;;;5051449;28;19990;-82
2022/03/18 05:53:43;;;;;;;;;;;4.60;99.90;;;;;;5054213;28;19920;-83
2022/03/18 05:58:53;;;;;;;;;;;4.60;99.90;;;;;;5054103;28;20425;-83
2022/03/18 06:01:19;;;;;;;;;;;4.60;99.90;;;;;;5033640;28;19921;-83
2022/03/18 06:03:45;;;;;;;;;;;4.60;99.90;;;;;;5037309;28;19913;-83
2022/03/18 06:06:10;;;;;;;;;;;4.70;99.90;;;;;;5054473;28;20391;-83
2022/03/18 06:14:04;;;;;;;;;;;4.70;99.90;;;;;;5054712;28;19978;-83
2022/03/18 06:16:30;;;;;;;;;;;4.80;99.90;;;;;;5035477;28;19921;-83
2022/03/18 06:18:55;;;;;;;;;;;4.80;99.90;;;;;;5037322;28;19917;-83
2022/03/18 06:21:21;;;;;;;;;;;4.90;99.90;;;;;;5037679;28;19921;-83
2022/03/18 06:23:47;;;;;;;;;;;4.90;99.90;;;;;;5053880;28;19917;-84
2022/03/18 06:26:12;;;;;;;;;;;4.90;99.90;;;;;;5037698;28;19920;-83
2022/03/18 06:28:38;;;;;;;;;;;4.90;99.90;;;;;;5054504;28;20380;-83
2022/03/18 06:31:06;;;;;;;;;;;4.90;99.90;;;;;;5054408;28;19920;-83
2022/03/18 06:33:32;;;;;;;;;;;4.90;99.90;;;;;;5054381;28;19913;-83
2022/03/18 06:35:58;;;;;;;;;;;4.90;99.90;;;;;;5053153;28;19943;-82
2022/03/18 06:38:23;;;;;;;;;;;5.00;99.90;;;;;;5053960;28;19964;-83
2022/03/18 06:40:49;;;;;;;;;;;5.00;99.90;;;;;;5036880;28;19953;-83
2022/03/18 06:43:15;;;;;;;;;;;5.10;99.90;;;;;;5055112;28;19912;-83
2022/03/18 06:45:41;;;;;;;;;;;5.10;99.90;;;;;;5037978;28;20393;-83
2022/03/18 06:48:06;;;;;;;;;;;5.10;99.90;;;;;;5037759;28;20019;-83
2022/03/18 06:50:32;;;;;;;;;;;5.10;99.90;;;;;;5037902;28;19924;-83
2022/03/18 06:52:58;;;;;;;;;;;5.20;99.90;;;;;;5037501;28;19960;-83
2022/03/18 06:55:23;;;;;;;;;;;5.20;99.90;;;;;;5054208;28;20279;-83
2022/03/18 06:57:49;;;;;;;;;;;5.30;99.90;;;;;;5057789;28;19913;-84
2022/03/18 07:00:15;;;;;;;;;;;5.30;99.90;;;;;;5041244;28;19959;-84
2022/03/18 07:02:40;;;;;;;;;;;5.30;99.90;;;;;;5038544;28;19984;-84
2022/03/18 07:05:06;;;;;;;;;;;5.40;99.90;;;;;;5036067;28;20000;-84
2022/03/18 07:07:31;;;;;;;;;;;5.40;99.90;;;;;;5052200;28;20017;-86
2022/03/18 07:09:57;;;;;;;;;;;5.50;99.90;;;;;;5055116;28;19916;-84
2022/03/18 07:12:22;;;;;;;;;;;5.40;99.90;;;;;;5056875;28;20371;-83
2022/03/18 07:14:49;;;;;;;;;;;5.50;99.90;;;;;;5084630;28;19923;-84
2022/03/18 07:19:59;;;;;;;;;;;5.50;99.90;;;;;;5052877;28;19943;-84
2022/03/18 07:22:25;;;;;;;;;;;5.60;99.90;;;;;;5060112;28;19913;-85
2022/03/18 07:24:50;;;;;;;;;;;5.60;99.90;;;;;;5058376;28;19920;-85
2022/03/18 07:27:16;;;;;;;;;;;5.70;99.90;;;;;;5059494;28;19944;-84
2022/03/18 07:29:42;;;;;;;;;;;5.80;99.90;;;;;;5044026;28;19988;-84
2022/03/18 07:32:07;;;;;;;;;;;5.90;99.90;;;;;;5044587;28;20315;-84
2022/03/18 07:34:33;;;;;;;;;;;5.90;99.90;;;;;;5060982;28;20434;-84
2022/03/18 07:36:58;;;;;;;;;;;6.00;99.90;;;;;;5060807;28;19913;-85
2022/03/18 07:39:24;;;;;;;;;;;6.10;99.90;;;;;;5041020;28;19917;-84
2022/03/18 07:41:50;;;;;;;;;;;6.20;99.90;;;;;;5043937;28;19917;-85
2022/03/18 07:44:16;;;;;;;;;;;6.30;99.90;;;;;;5043982;28;19916;-83
2022/03/18 07:46:41;;;;;;;;;;;6.20;99.90;;;;;;5043432;28;19924;-84
2022/03/18 07:49:07;;;;;;;;;;;6.30;99.90;;;;;;5045519;28;19921;-84
2022/03/18 07:51:32;;;;;;;;;;;6.30;99.90;;;;;;5064235;28;19913;-84
2022/03/18 07:53:58;;;;;;;;;;;6.30;99.90;;;;;;5047444;28;19932;-84
2022/03/18 07:56:23;;;;;;;;;;;6.30;99.90;;;;;;5065251;28;19909;-84
2022/03/18 07:58:49;;;;;;;;;;;6.30;99.90;;;;;;5045139;28;19947;-86
2022/03/18 08:01:15;;;;;;;;;;;6.30;99.90;;;;;;5050780;28;20615;-83
2022/03/18 08:03:41;;;;;;;;;;;6.30;99.90;;;;;;5048549;28;19933;-84
2022/03/18 08:06:06;;;;;;;;;;;6.30;99.90;;;;;;5064178;28;19916;-84
2022/03/18 08:08:32;;;;;;;;;;;6.30;99.90;;;;;;5053855;28;19936;-84
2022/03/18 08:10:57;;;;;;;;;;;6.30;99.90;;;;;;5037394;28;19917;-84
2022/03/18 08:13:23;;;;;;;;;;;6.30;99.90;;;;;;5035469;28;19943;-83
2022/03/18 08:15:49;;;;;;;;;;;6.30;99.90;;;;;;5052116;28;19913;-85
2022/03/18 08:18:15;;;;;;;;;;;6.40;99.90;;;;;;5051917;28;20008;-83
2022/03/18 08:20:41;;;;;;;;;;;6.40;99.90;;;;;;5051405;28;19916;-84
2022/03/18 08:23:12;;;;;;;;;;;6.50;99.90;;;;;;5051714;28;19912;-84
2022/03/18 08:25:38;;;;;;;;;;;6.50;99.90;;;;;;5052380;28;19913;-82
2022/03/18 08:28:05;;;;;;;;;;;6.60;99.90;;;;;;5052720;28;20394;-83
2022/03/18 08:30:31;;;;;;;;;;;6.60;99.90;;;;;;5037503;28;19956;-84
2022/03/18 08:32:57;;;;;;;;;;;6.50;99.90;;;;;;5054069;28;20002;-83
2022/03/18 08:35:22;;;;;;;;;;;6.40;99.90;;;;;;5037031;28;20334;-83
2022/03/18 08:37:57;;;;;;;;;;;6.40;99.90;;;;;;5053608;28;19917;-83
2022/03/18 08:40:32;;;;;;;;;;;6.40;99.90;;;;;;5038951;28;19924;-83
2022/03/18 08:42:59;;;;;;;;;;;6.50;99.90;;;;;;5054451;28;19909;-83
2022/03/18 08:45:25;;;;;;;;;;;6.60;99.90;;;;;;5054303;28;19913;-83
2022/03/18 08:47:51;;;;;;;;;;;6.70;99.90;;;;;;5054025;28;20385;-82
2022/03/18 08:50:17;;;;;;;;;;;6.70;99.90;;;;;;5037717;28;20003;-81
2022/03/18 08:52:45;;;;;;;;;;;6.70;99.90;;;;;;5054496;28;19912;-83
2022/03/18 08:55:11;;;;;;;;;;;6.90;99.90;;;;;;5037188;28;20299;-83
2022/03/18 08:57:37;;;;;;;;;;;6.90;99.90;;;;;;5054700;28;20043;-83
2022/03/18 09:00:05;;;;;;;;;;;7.00;99.90;;;;;;5035279;28;19924;-83
2022/03/18 09:02:31;;;;;;;;;;;7.00;99.90;;;;;;5050999;28;19916;-83
2022/03/18 09:04:56;;;;;;;;;;;7.00;99.90;;;;;;5034345;28;19917;-83
2022/03/18 09:07:22;;;;;;;;;;;7.10;99.90;;;;;;5033833;28;20395;-84
2022/03/18 09:09:47;;;;;;;;;;;7.20;99.90;;;;;;5052127;28;19916;-83
2022/03/18 09:12:15;;;;;;;;;;;7.30;99.90;;;;;;5038028;28;19921;-83
2022/03/18 09:14:41;;;;;;;;;;;7.40;99.90;;;;;;5052909;28;20283;-83
2022/03/18 09:17:06;;;;;;;;;;;7.50;99.90;;;;;;5054383;28;19912;-83
2022/03/18 09:19:37;;;;;;;;;;;7.60;99.90;;;;;;5038110;28;19920;-84
2022/03/18 09:22:06;;;;;;;;;;;7.60;99.90;;;;;;5053108;28;19912;-82
2022/03/18 09:24:33;;;;;;;;;;;7.70;99.90;;;;;;5053200;28;19913;-84
2022/03/18 09:26:58;;;;;;;;;;;7.70;99.90;;;;;;5051827;28;20385;-84
2022/03/18 09:29:27;;;;;;;;;;;7.80;99.90;;;;;;5036254;28;19921;-84
2022/03/18 09:31:53;;;;;;;;;;;7.70;99.90;;;;;;5053677;28;19936;-84
2022/03/18 09:34:24;;;;;;;;;;;7.70;99.90;;;;;;5038222;28;19921;-84
2022/03/18 09:36:58;;;;;;;;;;;7.90;99.90;;;;;;5054161;28;19917;-82
2022/03/18 09:39:24;;;;;;;;;;;8.00;99.90;;;;;;5053060;28;20058;-84
2022/03/18 09:41:50;;;;;;;;;;;8.10;99.90;;;;;;5052381;28;19921;-85
2022/03/18 09:44:16;;;;;;;;;;;8.00;99.90;;;;;;5052057;28;20000;-85
2022/03/18 09:46:42;;;;;;;;;;;7.90;99.90;;;;;;5054760;28;20430;-84
2022/03/18 09:49:11;;;;;;;;;;;7.90;99.90;;;;;;5037227;28;20195;-84
2022/03/18 09:51:44;;;;;;;;;;;8.00;99.90;;;;;;5052125;28;19920;-85
2022/03/18 09:54:10;;;;;;;;;;;8.20;99.90;;;;;;5053715;28;19956;-85
2022/03/18 09:56:39;;;;;;;;;;;8.30;99.90;;;;;;5053376;28;19919;-82
2022/03/18 09:59:05;;;;;;;;;;;8.40;99.90;;;;;;5052177;28;19943;-84
2022/03/18 10:01:30;;;;;;;;;;;8.50;99.90;;;;;;5036509;28;19917;-82
2022/03/18 10:04:01;;;;;;;;;;;8.60;99.90;;;;;;5057449;28;19935;-82
2022/03/18 10:06:31;;;;;;;;;;;8.70;99.90;;;;;;5057490;28;19923;-83
2022/03/18 10:08:58;;;;;;;;;;;8.60;99.90;;;;;;5057697;28;19912;-83
2022/03/18 10:11:27;;;;;;;;;;;8.60;99.90;;;;;;5038359;28;19972;-83
2022/03/18 10:13:56;;;;;;;;;;;8.60;99.90;;;;;;5058489;28;19913;-83
2022/03/18 10:16:41;;;;;;;;;;;8.70;99.90;;;;;;5041065;28;19948;-83
2022/03/18 10:19:08;;;;;;;;;;;8.80;99.60;;;;;;5042396;28;19921;-83
2022/03/18 10:21:49;;;;;;;;;;;8.90;99.10;;;;;;5042423;28;20373;-83
2022/03/18 10:24:15;;;;;;;;;;;8.90;99.00;;;;;;5054090;28;19913;-83
2022/03/18 10:26:41;;;;;;;;;;;8.80;98.80;;;;;;5060700;28;19924;-84
2022/03/18 10:29:11;;;;;;;;;;;8.70;97.50;;;;;;5042471;28;19928;-84
2022/03/18 10:31:39;;;;;;;;;;;8.60;99.40;;;;;;5061519;28;20294;-84
2022/03/18 10:37:04;;;;;;;;;;;8.80;98.30;;;;;;5063944;28;19920;-84
2022/03/18 10:39:36;;;;;;;;;;;8.80;99.00;;;;;;5057295;28;19924;-83
2022/03/18 10:42:07;;;;;;;;;;;8.80;98.40;;;;;;5059279;28;19974;-83
2022/03/18 10:44:53;;;;;;;;;;;8.80;99.60;;;;;;5059922;28;20368;-83
2022/03/18 10:47:30;;;;;;;;;;;8.80;99.90;;;;;;5082213;22;19967;-88
2022/03/18 10:50:08;;;;;;;;;;;8.90;98.80;;;;;;5057045;28;20394;-85
2022/03/18 10:52:33;;;;;;;;;;;9.00;99.10;;;;;;5068935;28;19912;-88
2022/03/18 10:55:14;;;;;;;;;;;9.10;99.70;;;;;;5076013;28;19924;-89
2022/03/18 10:57:39;;;;;;;;;;;9.20;97.60;;;;;;5065222;28;19967;-88
2022/03/18 11:00:05;;;;;;;;;;;9.20;99.90;;;;;;5056475;28;19917;-85
2022/03/18 11:02:31;;;;;;;;;;;9.30;97.10;;;;;;5048038;28;19916;-86
2022/03/18 11:04:57;;;;;;;;;;;9.30;97.60;;;;;;5073327;28;19912;-86
2022/03/18 11:07:31;;;;;;;;;;;9.30;97.60;;;;;;5077048;28;19923;-87
2022/03/18 11:12:45;;;;;;;;;;;9.30;98.60;;;;;;5076441;28;19966;-85
2022/03/18 11:15:10;;;;;;;;;;;9.40;97.50;;;;;;5073842;28;20429;-85
2022/03/18 11:17:39;;;;;;;;;;;9.40;99.80;;;;;;5038520;28;19917;-87
2022/03/18 11:20:05;;;;;;;;;;;9.50;97.90;;;;;;5038974;28;19924;-87
2022/03/18 11:22:33;;;;;;;;;;;9.40;95.70;;;;;;5039061;28;19917;-87
2022/03/18 11:25:00;;;;;;;;;;;9.50;95.70;;;;;;5063935;28;19913;-87
2022/03/18 11:27:25;;;;;;;;;;;9.30;95.70;;;;;;5075688;28;20003;-87
2022/03/18 11:30:10;;;;;;;;;;;9.40;96.00;;;;;;5059454;28;19973;-86
2022/03/18 11:32:35;;;;;;;;;;;9.40;96.80;;;;;;5043339;28;19920;-86
2022/03/18 11:35:03;;;;;;;;;;;9.40;97.40;;;;;;5076897;28;20022;-87
2022/03/18 11:37:29;;;;;;;;;;;9.50;99.90;;;;;;5078005;28;20265;-87
2022/03/18 11:40:13;;;;;;;;;;;9.50;99.30;;;;;;5073815;28;19920;-86
2022/03/18 11:42:39;;;;;;;;;;;9.80;99.80;;;;;;5057850;28;20358;-86
2022/03/18 11:45:06;;;;;;;;;;;10.00;93.60;;;;;;5040410;28;20018;-90
2022/03/18 11:47:32;;;;;;;;;;;10.10;96.40;;;;;;5065277;28;19917;-85
2022/03/18 11:49:58;;;;;;;;;;;10.30;96.00;;;;;;5078497;28;19982;-87
2022/03/18 11:52:24;;;;;;;;;;;10.30;94.70;;;;;;5060221;28;20380;-88
2022/03/18 11:54:50;;;;;;;;;;;10.40;93.80;;;;;;5061789;28;19914;-88
2022/03/18 11:57:35;;;;;;;;;;;10.40;94.60;;;;;;5071491;28;19959;-87
2022/03/18 12:00:05;;;;;;;;;;;10.60;93.50;;;;;;5076115;28;19955;-87
2022/03/18 12:02:37;;;;;;;;;;;10.80;94.90;;;;;;5051990;28;20202;-88
2022/03/18 12:05:03;;;;;;;;;;;10.90;92.50;;;;;;5058493;28;19983;-85
2022/03/18 12:07:32;;;;;;;;;;;10.80;91.00;;;;;;5059752;28;19913;-88
2022/03/18 12:10:03;;;;;;;;;;;10.70;90.70;;;;;;5059202;28;19958;-86
2022/03/18 12:12:33;;;;;;;;;;;10.60;93.10;;;;;;5057647;28;20266;-86
2022/03/18 12:15:02;;;;;;;;;;;10.60;90.40;;;;;;5071990;28;19913;-86
2022/03/18 12:17:28;;;;;;;;;;;10.40;91.40;;;;;;5070270;28;19912;-88
2022/03/18 12:19:55;;;;;;;;;;;10.50;93.30;;;;;;5058912;28;19917;-85
2022/03/18 12:22:22;;;;;;;;;;;10.50;93.80;;;;;;5078827;28;19917;-87
2022/03/18 12:24:48;;;;;;;;;;;10.50;93.30;;;;;;5062656;28;19916;-86
2022/03/18 12:27:21;;;;;;;;;;;10.50;92.00;;;;;;5072213;28;19956;-86
2022/03/18 12:29:46;;;;;;;;;;;10.40;92.40;;;;;;5068594;28;19916;-85
2022/03/18 12:32:18;;;;;;;;;;;10.40;89.50;;;;;;5056766;28;20393;-85
2022/03/18 12:34:48;;;;;;;;;;;10.30;92.40;;;;;;5053207;28;19921;-85
2022/03/18 12:37:34;;;;;;;;;;;10.20;90.30;;;;;;5060098;28;19912;-85
2022/03/18 12:40:03;;;;;;;;;;;10.20;90.50;;;;;;5070413;28;20710;-85
2022/03/18 12:42:29;;;;;;;;;;;10.00;93.50;;;;;;5060146;28;20381;-84
2022/03/18 12:45:02;;;;;;;;;;;10.10;92.40;;;;;;5050135;28;19909;-85
2022/03/18 12:47:30;;;;;;;;;;;10.20;95.80;;;;;;5053628;28;20009;-85
2022/03/18 12:49:56;;;;;;;;;;;10.30;94.10;;;;;;5063957;28;19915;-84
2022/03/18 12:52:21;;;;;;;;;;;10.20;92.40;;;;;;5055944;28;19909;-85
2022/03/18 12:55:04;;;;;;;;;;;10.10;92.70;;;;;;5033880;28;19917;-85
2022/03/18 12:57:33;;;;;;;;;;;10.20;90.90;;;;;;5050182;28;20384;-85
2022/03/18 12:59:59;;;;;;;;;;;10.10;92.20;;;;;;5049928;28;19956;-84
2022/03/18 13:02:25;;;;;;;;;;;10.00;90.50;;;;;;5033399;28;20393;-85
2022/03/18 13:05:00;;;;;;;;;;;10.00;87.00;;;;;;5050035;28;19908;-87
2022/03/18 13:07:29;;;;;;;;;;;10.00;89.10;;;;;;5051883;28;19913;-84
2022/03/18 13:09:55;;;;;;;;;;;10.10;90.20;;;;;;5051280;28;19917;-84
2022/03/18 13:12:31;;;;;;;;;;;10.20;91.00;;;;;;5033584;28;19920;-84
2022/03/18 13:14:57;;;;;;;;;;;10.30;89.60;;;;;;5051300;28;20050;-85
2022/03/18 13:17:23;;;;;;;;;;;10.50;85.50;;;;;;5049786;28;20528;-84
2022/03/18 13:19:51;;;;;;;;;;;10.50;84.30;;;;;;5051328;28;19913;-86
2022/03/18 13:22:17;;;;;;;;;;;10.40;79.80;;;;;;5049874;28;20291;-85
2022/03/18 13:24:43;;;;;;;;;;;10.40;77.70;;;;;;5049808;28;19916;-84
2022/03/18 13:27:08;;;;;;;;;;;10.40;79.50;;;;;;5049425;28;19913;-85
2022/03/18 13:35:12;;;;;;;;;;;10.50;75.80;;;;;;5050357;28;19920;-85
2022/03/18 13:37:37;;;;;;;;;;;10.60;76.20;;;;;;5049631;28;20301;-87
2022/03/18 13:40:07;;;;;;;;;;;10.70;70.80;;;;;;5049779;28;19945;-84
2022/03/18 13:42:33;;;;;;;;;;;10.70;69.90;;;;;;5050075;28;19909;-85
2022/03/18 13:44:58;;;;;;;;;;;10.60;68.90;;;;;;5049634;28;20384;-85
2022/03/18 13:47:26;;;;;;;;;;;10.60;67.20;;;;;;5032926;28;19929;-86
2022/03/18 13:49:53;;;;;;;;;;;10.50;65.50;;;;;;5033504;28;19923;-85
2022/03/18 13:52:29;;;;;;;;;;;10.50;70.30;;;;;;5032939;28;19920;-85
2022/03/18 13:54:55;;;;;;;;;;;10.50;66.80;;;;;;5049643;28;19935;-85
2022/03/18 13:57:21;;;;;;;;;;;10.50;63.70;;;;;;5049297;28;20428;-85
2022/03/18 13:59:50;;;;;;;;;;;10.40;60.40;;;;;;5049664;28;20008;-85
2022/03/18 14:02:23;;;;;;;;;;;10.30;60.00;;;;;;5050558;28;20459;-88
2022/03/18 14:04:54;;;;;;;;;;;10.30;61.50;;;;;;5033039;28;19970;-85
2022/03/18 14:07:19;;;;;;;;;;;10.20;58.60;;;;;;5050760;28;20343;-85
2022/03/18 14:10:15;;;;;;;;;;;10.20;61.00;;;;;;5049308;28;19913;-85
2022/03/18 14:12:56;;;;;;;;;;;10.20;60.60;;;;;;5039260;28;20281;-87
2022/03/18 14:15:21;;;;;;;;;;;10.20;61.20;;;;;;5054508;28;19916;-84
2022/03/18 14:17:57;;;;;;;;;;;10.20;58.20;;;;;;5036603;28;19913;-85
2022/03/18 14:20:26;;;;;;;;;;;10.20;59.00;;;;;;5053192;28;19909;-87
2022/03/18 14:22:53;;;;;;;;;;;10.30;57.00;;;;;;5053410;28;19917;-84
2022/03/18 14:25:18;;;;;;;;;;;10.20;56.00;;;;;;5053262;28;19913;-85
2022/03/18 14:27:45;;;;;;;;;;;10.20;56.70;;;;;;5052982;28;19920;-85
2022/03/18 14:30:11;;;;;;;;;;;10.20;56.40;;;;;;5053040;28;20398;-85
2022/03/18 14:32:36;;;;;;;;;;;10.30;57.60;;;;;;5053062;28;19909;-85
2022/03/18 14:35:02;;;;;;;;;;;10.30;56.10;;;;;;5053044;28;19909;-85
2022/03/18 14:37:31;;;;;;;;;;;10.40;55.50;;;;;;5052738;28;20498;-84
2022/03/18 14:39:59;;;;;;;;;;;10.40;53.50;;;;;;5036733;28;19913;-84
2022/03/18 14:42:26;;;;;;;;;;;10.50;55.10;;;;;;5052730;28;20308;-86
2022/03/18 14:44:51;;;;;;;;;;;10.60;53.60;;;;;;5054352;28;19943;-88
2022/03/18 14:47:17;;;;;;;;;;;10.70;55.30;;;;;;5040393;28;19928;-84
2022/03/18 14:49:42;;;;;;;;;;;10.80;52.60;;;;;;5038540;28;19924;-84
2022/03/18 14:52:08;;;;;;;;;;;10.80;51.60;;;;;;5036235;28;20000;-85
2022/03/18 14:57:19;;;;;;;;;;;10.70;51.20;;;;;;5053210;28;19920;-87
2022/03/18 14:59:50;;;;;;;;;;;10.80;49.60;;;;;;5052578;28;19915;-86
2022/03/18 15:02:16;;;;;;;;;;;10.80;48.00;;;;;;5052411;28;20396;-84